sensor_id;sensor_type;location;lat;lon;timestamp;temperature;humidity
20722;DHT22;10522;52.198;9.890;2022-11-15T00:00:49;6.30;99.90
20722;DHT22;10522;52.198;9.890;2022-11-15T00:03:16;6.10;99.90
20722;DHT22;10522;52.198;9.890;2022-11-15T00:05:44;6.20;99.90
20722;DHT22;10522;52.198;9.890;2022-11-15T00:08:10;6.50;99.90
20722;DHT22;10522;52.198;9.890;2022-11-15T00:10:36;6.50;99.90
20722;DHT22;10522;52.198;9.890;2022-11-15T00:13:12;6.80;99.90
20722;DHT22;10522;52.198;9.890;2022-11-15T00:15:39;6.90;99.90
20722;DHT22;10522;52.198;9.890;2022-11-15T00:18:06;6.90;99.90
20722;DHT22;10522;52.198;9.890;2022-11-15T00:20:37;7.10;99.90
20722;DHT22;10522;52.198;9.890;2022-11-15T00:23:06;7.10;99.90
20722;DHT22;10522;52.198;9.890;2022-11-15T00:25:32;7.40;99.90
20722;DHT22;10522;52.198;9.890;2022-11-15T00:27:59;7.70;99.90
20722;DHT22;10522;52.198;9.890;2022-11-15T00:30:25;7.80;99.90
20722;DHT22;10522;52.198;9.890;2022-11-15T00:32:50;8.00;99.90
20722;DHT22;10522;52.198;9.890;2022-11-15T00:35:16;8.20;99.90
20722;DHT22;10522;52.198;9.890;2022-11-15T00:37:42;8.50;99.90
20722;DHT22;10522;52.198;9.890;2022-11-15T00:40:09;8.80;99.90
20722;DHT22;10522;52.198;9.890;2022-11-15T00:42:35;8.90;99.90
20722;DHT22;10522;52.198;9.890;2022-11-15T00:45:01;8.90;99.90
20722;DHT22;10522;52.198;9.890;2022-11-15T00:47:26;9.00;99.90
20722;DHT22;10522;52.198;9.890;2022-11-15T00:49:52;9.10;99.90
20722;DHT22;10522;52.198;9.890;2022-11-15T00:52:17;9.30;99.90
20722;DHT22;10522;52.198;9.890;2022-11-15T00:54:43;9.30;99.90
20722;DHT22;10522;52.198;9.890;2022-11-15T00:57:09;9.60;99.90
20722;DHT22;10522;52.198;9.890;2022-11-15T00:59:34;9.80;99.90
20722;DHT22;10522;52.198;9.890;2022-11-15T01:02:00;9.90;99.90
20722;DHT22;10522;52.198;9.890;2022-11-15T01:04:26;9.80;99.90
20722;DHT22;10522;52.198;9.890;2022-11-15T01:06:53;9.90;99.90
20722;DHT22;10522;52.198;9.890;2022-11-15T01:09:18;9.90;99.90
20722;DHT22;10522;52.198;9.890;2022-11-15T01:11:44;10.00;99.90
20722;DHT22;10522;52.198;9.890;2022-11-15T01:14:10;10.10;99.90
20722;DHT22;10522;52.198;9.890;2022-11-15T01:16:35;10.10;99.90
20722;DHT22;10522;52.198;9.890;2022-11-15T01:19:01;10.10;99.90
20722;DHT22;10522;52.198;9.890;2022-11-15T01:21:27;10.10;99.90
20722;DHT22;10522;52.198;9.890;2022-11-15T01:23:56;10.20;99.90
20722;DHT22;10522;52.198;9.890;2022-11-15T01:26:23;10.20;99.90
20722;DHT22;10522;52.198;9.890;2022-11-15T01:28:49;10.20;99.90
20722;DHT22;10522;52.198;9.890;2022-11-15T01:31:18;10.20;99.90
20722;DHT22;10522;52.198;9.890;2022-11-15T01:33:44;10.20;99.90
20722;DHT22;10522;52.198;9.890;2022-11-15T01:36:18;10.30;99.90
20722;DHT22;10522;52.198;9.890;2022-11-15T01:38:44;10.20;99.90
20722;DHT22;10522;52.198;9.890;2022-11-15T01:41:19;10.30;99.90
20722;DHT22;10522;52.198;9.890;2022-11-15T01:43:48;10.30;99.90
20722;DHT22;10522;52.198;9.890;2022-11-15T01:46:30;10.30;99.90
20722;DHT22;10522;52.198;9.890;2022-11-15T01:49:02;10.30;99.90
20722;DHT22;10522;52.198;9.890;2022-11-15T01:51:32;10.30;99.90
20722;DHT22;10522;52.198;9.890;2022-11-15T01:54:06;10.40;99.90
20722;DHT22;10522;52.198;9.890;2022-11-15T01:56:38;10.50;99.90
20722;DHT22;10522;52.198;9.890;2022-11-15T01:59:08;10.50;99.90
20722;DHT22;10522;52.198;9.890;2022-11-15T02:01:34;10.50;99.90
20722;DHT22;10522;52.198;9.890;2022-11-15T02:04:09;10.60;99.90
20722;DHT22;10522;52.198;9.890;2022-11-15T02:06:37;10.70;99.90
20722;DHT22;10522;52.198;9.890;2022-11-15T02:09:03;10.60;99.90
20722;DHT22;10522;52.198;9.890;2022-11-15T02:11:29;10.70;99.90
20722;DHT22;10522;52.198;9.890;2022-11-15T02:13:56;10.70;99.90
20722;DHT22;10522;52.198;9.890;2022-11-15T02:22:09;10.70;99.90
20722;DHT22;10522;52.198;9.890;2022-11-15T02:24:46;10.70;99.90
20722;DHT22;10522;52.198;9.890;2022-11-15T02:27:59;10.70;99.90
20722;DHT22;10522;52.198;9.890;2022-11-15T02:30:44;10.80;99.90
20722;DHT22;10522;52.198;9.890;2022-11-15T02:35:44;10.90;99.90
20722;DHT22;10522;52.198;9.890;2022-11-15T02:41:01;10.90;99.90
20722;DHT22;10522;52.198;9.890;2022-11-15T02:43:55;10.90;99.90
20722;DHT22;10522;52.198;9.890;2022-11-15T02:49:23;11.00;99.90
20722;DHT22;10522;52.198;9.890;2022-11-15T02:51:52;11.00;99.90
20722;DHT22;10522;52.198;9.890;2022-11-15T02:54:22;10.90;99.90
20722;DHT22;10522;52.198;9.890;2022-11-15T02:56:49;11.00;99.90
20722;DHT22;10522;52.198;9.890;2022-11-15T03:05:34;11.20;99.90
20722;DHT22;10522;52.198;9.890;2022-11-15T03:10:20;11.00;99.90
20722;DHT22;10522;52.198;9.890;2022-11-15T03:13:01;11.00;99.90
20722;DHT22;10522;52.198;9.890;2022-11-15T03:15:37;11.10;99.90
20722;DHT22;10522;52.198;9.890;2022-11-15T03:18:10;11.00;99.90
20722;DHT22;10522;52.198;9.890;2022-11-15T03:20:38;11.10;99.90
20722;DHT22;10522;52.198;9.890;2022-11-15T03:23:09;11.20;99.90
20722;DHT22;10522;52.198;9.890;2022-11-15T03:25:40;11.20;99.90
20722;DHT22;10522;52.198;9.890;2022-11-15T03:28:09;11.10;99.90
20722;DHT22;10522;52.198;9.890;2022-11-15T03:30:38;11.10;99.90
20722;DHT22;10522;52.198;9.890;2022-11-15T03:33:05;11.00;99.90
20722;DHT22;10522;52.198;9.890;2022-11-15T03:35:38;10.90;99.90
20722;DHT22;10522;52.198;9.890;2022-11-15T03:41:04;11.00;99.90
20722;DHT22;10522;52.198;9.890;2022-11-15T03:44:04;10.90;99.90
20722;DHT22;10522;52.198;9.890;2022-11-15T03:47:13;10.90;99.90
20722;DHT22;10522;52.198;9.890;2022-11-15T03:49:50;10.90;99.90
20722;DHT22;10522;52.198;9.890;2022-11-15T03:52:21;10.90;99.90
20722;DHT22;10522;52.198;9.890;2022-11-15T03:54:55;10.80;99.90
20722;DHT22;10522;52.198;9.890;2022-11-15T03:57:21;10.60;99.90
20722;DHT22;10522;52.198;9.890;2022-11-15T03:59:47;10.60;99.90
20722;DHT22;10522;52.198;9.890;2022-11-15T04:02:12;10.50;99.90
20722;DHT22;10522;52.198;9.890;2022-11-15T04:04:38;10.50;99.90
20722;DHT22;10522;52.198;9.890;2022-11-15T04:07:04;10.40;99.90
20722;DHT22;10522;52.198;9.890;2022-11-15T04:09:30;10.40;99.90
20722;DHT22;10522;52.198;9.890;2022-11-15T04:11:56;10.40;99.90
20722;DHT22;10522;52.198;9.890;2022-11-15T04:14:21;10.30;99.90
20722;DHT22;10522;52.198;9.890;2022-11-15T04:16:47;10.20;99.90
20722;DHT22;10522;52.198;9.890;2022-11-15T04:19:12;10.30;99.90
20722;DHT22;10522;52.198;9.890;2022-11-15T04:21:57;10.30;99.90
20722;DHT22;10522;52.198;9.890;2022-11-15T04:24:41;10.20;99.90
20722;DHT22;10522;52.198;9.890;2022-11-15T04:27:06;10.00;99.90
20722;DHT22;10522;52.198;9.890;2022-11-15T04:29:32;10.10;99.90
20722;DHT22;10522;52.198;9.890;2022-11-15T04:32:04;10.10;99.90
20722;DHT22;10522;52.198;9.890;2022-11-15T04:34:31;10.10;99.90
20722;DHT22;10522;52.198;9.890;2022-11-15T04:36:57;10.00;99.90
20722;DHT22;10522;52.198;9.890;2022-11-15T04:39:38;9.90;99.90
20722;DHT22;10522;52.198;9.890;2022-11-15T04:42:04;9.80;99.90
20722;DHT22;10522;52.198;9.890;2022-11-15T04:44:29;9.60;99.90
20722;DHT22;10522;52.198;9.890;2022-11-15T04:46:55;9.30;99.90
20722;DHT22;10522;52.198;9.890;2022-11-15T04:49:21;9.30;99.90
20722;DHT22;10522;52.198;9.890;2022-11-15T04:51:46;9.30;99.90
20722;DHT22;10522;52.198;9.890;2022-11-15T04:54:12;9.20;99.90
20722;DHT22;10522;52.198;9.890;2022-11-15T04:56:37;9.00;99.90
20722;DHT22;10522;52.198;9.890;2022-11-15T04:59:03;9.00;99.90
20722;DHT22;10522;52.198;9.890;2022-11-15T05:01:29;9.00;99.90
20722;DHT22;10522;52.198;9.890;2022-11-15T05:03:54;9.00;99.90
20722;DHT22;10522;52.198;9.890;2022-11-15T05:06:38;9.00;99.90
20722;DHT22;10522;52.198;9.890;2022-11-15T05:09:04;9.00;99.90
20722;DHT22;10522;52.198;9.890;2022-11-15T05:11:30;9.00;99.90
20722;DHT22;10522;52.198;9.890;2022-11-15T05:13:56;9.10;99.90
20722;DHT22;10522;52.198;9.890;2022-11-15T05:16:21;9.00;99.90
20722;DHT22;10522;52.198;9.890;2022-11-15T05:18:51;8.90;99.90
20722;DHT22;10522;52.198;9.890;2022-11-15T05:21:17;8.90;99.90
20722;DHT22;10522;52.198;9.890;2022-11-15T05:23:43;8.90;99.90
20722;DHT22;10522;52.198;9.890;2022-11-15T05:26:09;9.00;99.90
20722;DHT22;10522;52.198;9.890;2022-11-15T05:28:35;9.10;99.90
20722;DHT22;10522;52.198;9.890;2022-11-15T05:31:06;9.00;99.90
20722;DHT22;10522;52.198;9.890;2022-11-15T05:33:33;9.00;99.90
20722;DHT22;10522;52.198;9.890;2022-11-15T05:36:28;9.00;99.90
20722;DHT22;10522;52.198;9.890;2022-11-15T05:38:51;8.90;99.90
20722;DHT22;10522;52.198;9.890;2022-11-15T05:41:19;8.90;99.90
20722;DHT22;10522;52.198;9.890;2022-11-15T05:43:46;8.80;99.90
20722;DHT22;10522;52.198;9.890;2022-11-15T05:46:14;8.80;99.90
20722;DHT22;10522;52.198;9.890;2022-11-15T05:48:42;8.70;99.90
20722;DHT22;10522;52.198;9.890;2022-11-15T05:51:08;8.70;99.90
20722;DHT22;10522;52.198;9.890;2022-11-15T05:53:35;8.80;99.90
20722;DHT22;10522;52.198;9.890;2022-11-15T05:56:03;8.90;99.90
20722;DHT22;10522;52.198;9.890;2022-11-15T05:58:31;8.90;99.90
20722;DHT22;10522;52.198;9.890;2022-11-15T06:00:57;9.00;99.90
20722;DHT22;10522;52.198;9.890;2022-11-15T06:03:23;9.00;99.90
20722;DHT22;10522;52.198;9.890;2022-11-15T06:05:48;9.00;99.90
20722;DHT22;10522;52.198;9.890;2022-11-15T06:08:14;9.00;99.90
20722;DHT22;10522;52.198;9.890;2022-11-15T06:10:39;8.90;99.90
20722;DHT22;10522;52.198;9.890;2022-11-15T06:13:05;8.90;99.90
20722;DHT22;10522;52.198;9.890;2022-11-15T06:15:32;9.00;99.90
20722;DHT22;10522;52.198;9.890;2022-11-15T06:17:58;9.00;99.90
20722;DHT22;10522;52.198;9.890;2022-11-15T06:20:25;8.90;99.90
20722;DHT22;10522;52.198;9.890;2022-11-15T06:22:55;8.70;99.90
20722;DHT22;10522;52.198;9.890;2022-11-15T06:25:21;8.60;99.90
20722;DHT22;10522;52.198;9.890;2022-11-15T06:27:54;8.60;99.90
20722;DHT22;10522;52.198;9.890;2022-11-15T06:30:20;8.60;99.90
20722;DHT22;10522;52.198;9.890;2022-11-15T06:32:46;8.60;99.90
20722;DHT22;10522;52.198;9.890;2022-11-15T06:35:13;8.70;99.90
20722;DHT22;10522;52.198;9.890;2022-11-15T06:37:39;8.70;99.90
20722;DHT22;10522;52.198;9.890;2022-11-15T06:40:05;8.70;99.90
20722;DHT22;10522;52.198;9.890;2022-11-15T06:42:31;8.80;99.90
20722;DHT22;10522;52.198;9.890;2022-11-15T06:44:56;8.80;99.90
20722;DHT22;10522;52.198;9.890;2022-11-15T06:47:22;9.00;99.90
20722;DHT22;10522;52.198;9.890;2022-11-15T06:49:48;9.20;99.90
20722;DHT22;10522;52.198;9.890;2022-11-15T06:52:13;9.10;99.90
20722;DHT22;10522;52.198;9.890;2022-11-15T06:54:39;9.10;99.90
20722;DHT22;10522;52.198;9.890;2022-11-15T06:57:05;9.10;99.90
20722;DHT22;10522;52.198;9.890;2022-11-15T06:59:31;9.10;99.90
20722;DHT22;10522;52.198;9.890;2022-11-15T07:01:56;9.20;99.90
20722;DHT22;10522;52.198;9.890;2022-11-15T07:04:22;9.20;99.90
20722;DHT22;10522;52.198;9.890;2022-11-15T07:06:47;9.30;99.90
20722;DHT22;10522;52.198;9.890;2022-11-15T07:09:14;9.40;99.90
20722;DHT22;10522;52.198;9.890;2022-11-15T07:11:39;9.40;99.90
20722;DHT22;10522;52.198;9.890;2022-11-15T07:14:05;9.50;99.90
20722;DHT22;10522;52.198;9.890;2022-11-15T07:16:31;9.40;99.90
20722;DHT22;10522;52.198;9.890;2022-11-15T07:18:56;9.40;99.90
20722;DHT22;10522;52.198;9.890;2022-11-15T07:21:22;9.40;99.90
20722;DHT22;10522;52.198;9.890;2022-11-15T07:23:48;9.50;99.90
20722;DHT22;10522;52.198;9.890;2022-11-15T07:26:13;9.40;99.90
20722;DHT22;10522;52.198;9.890;2022-11-15T07:28:39;9.40;99.90
20722;DHT22;10522;52.198;9.890;2022-11-15T07:31:06;9.40;99.90
20722;DHT22;10522;52.198;9.890;2022-11-15T07:33:33;9.40;99.90
20722;DHT22;10522;52.198;9.890;2022-11-15T07:36:03;9.50;99.90
20722;DHT22;10522;52.198;9.890;2022-11-15T07:38:29;9.50;99.90
20722;DHT22;10522;52.198;9.890;2022-11-15T07:40:59;9.60;99.90
20722;DHT22;10522;52.198;9.890;2022-11-15T07:43:25;9.60;99.90
20722;DHT22;10522;52.198;9.890;2022-11-15T07:45:53;9.60;99.90
20722;DHT22;10522;52.198;9.890;2022-11-15T07:48:19;9.60;99.90
20722;DHT22;10522;52.198;9.890;2022-11-15T07:50:44;9.60;99.90
20722;DHT22;10522;52.198;9.890;2022-11-15T07:53:10;9.70;99.90
20722;DHT22;10522;52.198;9.890;2022-11-15T07:55:36;9.70;99.90
20722;DHT22;10522;52.198;9.890;2022-11-15T07:58:03;9.60;99.90
20722;DHT22;10522;52.198;9.890;2022-11-15T08:00:29;9.70;99.90
20722;DHT22;10522;52.198;9.890;2022-11-15T08:03:08;9.80;99.90
20722;DHT22;10522;52.198;9.890;2022-11-15T08:05:34;9.80;99.90
20722;DHT22;10522;52.198;9.890;2022-11-15T08:08:00;9.70;99.90
20722;DHT22;10522;52.198;9.890;2022-11-15T08:10:27;9.80;99.90
20722;DHT22;10522;52.198;9.890;2022-11-15T08:13:03;9.70;99.90
20722;DHT22;10522;52.198;9.890;2022-11-15T08:15:30;9.80;99.90
20722;DHT22;10522;52.198;9.890;2022-11-15T08:18:01;9.70;99.90
20722;DHT22;10522;52.198;9.890;2022-11-15T08:20:29;9.80;99.90
20722;DHT22;10522;52.198;9.890;2022-11-15T08:22:59;9.80;99.90
20722;DHT22;10522;52.198;9.890;2022-11-15T08:25:26;9.90;99.90
20722;DHT22;10522;52.198;9.890;2022-11-15T08:27:57;9.90;99.90
20722;DHT22;10522;52.198;9.890;2022-11-15T08:30:23;10.00;99.90
20722;DHT22;10522;52.198;9.890;2022-11-15T08:32:50;10.10;99.90
20722;DHT22;10522;52.198;9.890;2022-11-15T08:35:16;10.30;99.90
20722;DHT22;10522;52.198;9.890;2022-11-15T08:37:42;10.30;99.90
20722;DHT22;10522;52.198;9.890;2022-11-15T08:40:08;10.50;99.90
20722;DHT22;10522;52.198;9.890;2022-11-15T08:42:35;10.60;99.90
20722;DHT22;10522;52.198;9.890;2022-11-15T08:45:00;10.60;99.90
20722;DHT22;10522;52.198;9.890;2022-11-15T08:47:26;10.70;99.90
20722;DHT22;10522;52.198;9.890;2022-11-15T08:49:52;10.80;99.90
20722;DHT22;10522;52.198;9.890;2022-11-15T08:52:18;11.00;99.90
20722;DHT22;10522;52.198;9.890;2022-11-15T08:54:44;11.10;99.90
20722;DHT22;10522;52.198;9.890;2022-11-15T08:57:09;11.20;99.90
20722;DHT22;10522;52.198;9.890;2022-11-15T08:59:38;11.40;99.90
20722;DHT22;10522;52.198;9.890;2022-11-15T09:02:05;11.60;99.90
20722;DHT22;10522;52.198;9.890;2022-11-15T09:04:31;11.70;99.90
20722;DHT22;10522;52.198;9.890;2022-11-15T09:06:56;11.90;99.90
20722;DHT22;10522;52.198;9.890;2022-11-15T09:09:22;11.80;99.90
20722;DHT22;10522;52.198;9.890;2022-11-15T09:11:48;11.80;99.90
20722;DHT22;10522;52.198;9.890;2022-11-15T09:14:14;11.90;99.90
20722;DHT22;10522;52.198;9.890;2022-11-15T09:16:40;12.10;99.90
20722;DHT22;10522;52.198;9.890;2022-11-15T09:19:06;12.20;99.90
20722;DHT22;10522;52.198;9.890;2022-11-15T09:21:32;12.30;99.90
20722;DHT22;10522;52.198;9.890;2022-11-15T09:23:58;12.30;99.90
20722;DHT22;10522;52.198;9.890;2022-11-15T09:26:24;12.30;99.90
20722;DHT22;10522;52.198;9.890;2022-11-15T09:28:50;12.20;99.90
20722;DHT22;10522;52.198;9.890;2022-11-15T09:31:15;12.30;99.90
20722;DHT22;10522;52.198;9.890;2022-11-15T09:33:43;12.20;99.90
20722;DHT22;10522;52.198;9.890;2022-11-15T09:36:10;12.30;99.90
20722;DHT22;10522;52.198;9.890;2022-11-15T09:38:36;12.30;99.90
20722;DHT22;10522;52.198;9.890;2022-11-15T09:48:56;12.70;99.90
20722;DHT22;10522;52.198;9.890;2022-11-15T09:51:35;12.70;99.90
20722;DHT22;10522;52.198;9.890;2022-11-15T09:54:11;12.70;99.90
20722;DHT22;10522;52.198;9.890;2022-11-15T09:56:43;12.80;99.90
20722;DHT22;10522;52.198;9.890;2022-11-15T09:59:39;12.80;99.90
20722;DHT22;10522;52.198;9.890;2022-11-15T10:02:36;13.00;99.90
20722;DHT22;10522;52.198;9.890;2022-11-15T10:05:04;13.10;99.90
20722;DHT22;10522;52.198;9.890;2022-11-15T10:10:37;13.30;99.90
20722;DHT22;10522;52.198;9.890;2022-11-15T10:13:06;13.20;99.90
20722;DHT22;10522;52.198;9.890;2022-11-15T10:15:36;13.20;99.90
20722;DHT22;10522;52.198;9.890;2022-11-15T10:20:52;13.10;99.90
20722;DHT22;10522;52.198;9.890;2022-11-15T10:23:22;13.10;99.90
20722;DHT22;10522;52.198;9.890;2022-11-15T10:25:55;13.20;99.90
20722;DHT22;10522;52.198;9.890;2022-11-15T10:28:30;13.30;99.90
20722;DHT22;10522;52.198;9.890;2022-11-15T10:30:58;13.40;99.90
20722;DHT22;10522;52.198;9.890;2022-11-15T10:33:37;13.40;99.90
20722;DHT22;10522;52.198;9.890;2022-11-15T10:41:14;13.50;99.90
20722;DHT22;10522;52.198;9.890;2022-11-15T10:43:40;13.60;99.90
20722;DHT22;10522;52.198;9.890;2022-11-15T10:46:23;13.70;99.90
20722;DHT22;10522;52.198;9.890;2022-11-15T10:48:49;13.70;99.90
20722;DHT22;10522;52.198;9.890;2022-11-15T10:51:43;13.70;99.90
20722;DHT22;10522;52.198;9.890;2022-11-15T10:54:11;13.60;99.90
20722;DHT22;10522;52.198;9.890;2022-11-15T10:56:39;13.60;99.90
20722;DHT22;10522;52.198;9.890;2022-11-15T10:59:16;13.60;99.90
20722;DHT22;10522;52.198;9.890;2022-11-15T11:01:48;13.70;99.90
20722;DHT22;10522;52.198;9.890;2022-11-15T11:04:13;13.70;99.90
20722;DHT22;10522;52.198;9.890;2022-11-15T11:06:51;13.70;99.90
20722;DHT22;10522;52.198;9.890;2022-11-15T11:11:50;13.60;99.90
20722;DHT22;10522;52.198;9.890;2022-11-15T11:14:29;13.70;99.90
20722;DHT22;10522;52.198;9.890;2022-11-15T11:20:11;13.50;99.90
20722;DHT22;10522;52.198;9.890;2022-11-15T11:36:45;13.50;99.90
20722;DHT22;10522;52.198;9.890;2022-11-15T11:39:31;13.50;99.90
20722;DHT22;10522;52.198;9.890;2022-11-15T11:42:10;13.50;99.90
20722;DHT22;10522;52.198;9.890;2022-11-15T11:47:40;13.50;99.90
20722;DHT22;10522;52.198;9.890;2022-11-15T11:50:33;13.40;99.90
20722;DHT22;10522;52.198;9.890;2022-11-15T11:55:53;13.50;99.90
20722;DHT22;10522;52.198;9.890;2022-11-15T12:00:58;13.50;99.90
20722;DHT22;10522;52.198;9.890;2022-11-15T12:03:44;13.40;99.90
20722;DHT22;10522;52.198;9.890;2022-11-15T12:06:35;13.40;99.90
20722;DHT22;10522;52.198;9.890;2022-11-15T12:09:29;13.40;99.90
20722;DHT22;10522;52.198;9.890;2022-11-15T12:17:31;13.50;99.90
20722;DHT22;10522;52.198;9.890;2022-11-15T12:20:03;13.50;99.90
20722;DHT22;10522;52.198;9.890;2022-11-15T12:22:49;13.40;99.90
20722;DHT22;10522;52.198;9.890;2022-11-15T12:25:31;13.40;99.90
20722;DHT22;10522;52.198;9.890;2022-11-15T12:31:02;13.50;99.90
20722;DHT22;10522;52.198;9.890;2022-11-15T12:33:38;13.60;99.90
20722;DHT22;10522;52.198;9.890;2022-11-15T12:36:08;13.70;99.90
20722;DHT22;10522;52.198;9.890;2022-11-15T12:38:52;13.70;99.90
20722;DHT22;10522;52.198;9.890;2022-11-15T12:41:32;13.70;99.90
20722;DHT22;10522;52.198;9.890;2022-11-15T12:43:59;13.70;99.90
20722;DHT22;10522;52.198;9.890;2022-11-15T12:50:00;13.70;99.90
20722;DHT22;10522;52.198;9.890;2022-11-15T12:59:48;13.70;99.90
20722;DHT22;10522;52.198;9.890;2022-11-15T13:02:50;13.70;99.90
20722;DHT22;10522;52.198;9.890;2022-11-15T13:08:09;13.60;99.90
20722;DHT22;10522;52.198;9.890;2022-11-15T13:10:34;13.70;99.90
20722;DHT22;10522;52.198;9.890;2022-11-15T13:13:07;13.70;99.90
20722;DHT22;10522;52.198;9.890;2022-11-15T13:15:54;13.70;99.90
20722;DHT22;10522;52.198;9.890;2022-11-15T13:18:36;13.70;99.90
20722;DHT22;10522;52.198;9.890;2022-11-15T13:21:04;13.70;99.90
20722;DHT22;10522;52.198;9.890;2022-11-15T13:23:54;13.80;99.90
20722;DHT22;10522;52.198;9.890;2022-11-15T13:26:21;13.80;99.90
20722;DHT22;10522;52.198;9.890;2022-11-15T13:28:49;13.90;99.90
20722;DHT22;10522;52.198;9.890;2022-11-15T13:31:26;13.90;99.90
20722;DHT22;10522;52.198;9.890;2022-11-15T13:33:56;13.90;99.90
20722;DHT22;10522;52.198;9.890;2022-11-15T13:36:25;13.90;99.90
20722;DHT22;10522;52.198;9.890;2022-11-15T13:38:59;13.90;99.90
20722;DHT22;10522;52.198;9.890;2022-11-15T13:41:33;14.00;99.90
20722;DHT22;10522;52.198;9.890;2022-11-15T13:44:00;14.00;99.90
20722;DHT22;10522;52.198;9.890;2022-11-15T13:46:29;14.00;99.90
20722;DHT22;10522;52.198;9.890;2022-11-15T13:49:05;14.10;99.90
20722;DHT22;10522;52.198;9.890;2022-11-15T13:51:40;14.20;99.90
20722;DHT22;10522;52.198;9.890;2022-11-15T13:56:53;14.40;99.90
20722;DHT22;10522;52.198;9.890;2022-11-15T13:59:29;14.40;99.90
20722;DHT22;10522;52.198;9.890;2022-11-15T14:02:02;14.40;99.90
20722;DHT22;10522;52.198;9.890;2022-11-15T14:04:30;14.40;99.90
20722;DHT22;10522;52.198;9.890;2022-11-15T14:06:59;14.50;99.90
20722;DHT22;10522;52.198;9.890;2022-11-15T14:09:38;14.60;99.90
20722;DHT22;10522;52.198;9.890;2022-11-15T14:12:28;14.60;99.90
20722;DHT22;10522;52.198;9.890;2022-11-15T14:14:56;14.60;99.90
20722;DHT22;10522;52.198;9.890;2022-11-15T14:19:54;14.50;99.90
20722;DHT22;10522;52.198;9.890;2022-11-15T14:22:22;14.50;99.90
20722;DHT22;10522;52.198;9.890;2022-11-15T14:25:18;14.40;99.90
20722;DHT22;10522;52.198;9.890;2022-11-15T14:28:12;14.30;99.90
20722;DHT22;10522;52.198;9.890;2022-11-15T14:30:39;14.20;99.90
20722;DHT22;10522;52.198;9.890;2022-11-15T14:35:50;14.10;99.90
20722;DHT22;10522;52.198;9.890;2022-11-15T14:38:16;14.00;99.90
20722;DHT22;10522;52.198;9.890;2022-11-15T14:40:43;14.00;99.90
20722;DHT22;10522;52.198;9.890;2022-11-15T14:43:12;13.80;99.90
20722;DHT22;10522;52.198;9.890;2022-11-15T14:45:39;13.80;99.90
20722;DHT22;10522;52.198;9.890;2022-11-15T14:48:04;13.70;99.90
20722;DHT22;10522;52.198;9.890;2022-11-15T14:50:32;13.70;99.90
20722;DHT22;10522;52.198;9.890;2022-11-15T14:52:59;13.70;99.90
20722;DHT22;10522;52.198;9.890;2022-11-15T14:55:27;13.60;99.90
20722;DHT22;10522;52.198;9.890;2022-11-15T14:57:56;13.60;99.90
20722;DHT22;10522;52.198;9.890;2022-11-15T15:00:22;13.60;99.90
20722;DHT22;10522;52.198;9.890;2022-11-15T15:02:49;13.60;99.90
20722;DHT22;10522;52.198;9.890;2022-11-15T15:05:24;13.50;99.90
20722;DHT22;10522;52.198;9.890;2022-11-15T15:07:50;13.40;99.90
20722;DHT22;10522;52.198;9.890;2022-11-15T15:10:20;13.40;99.90
20722;DHT22;10522;52.198;9.890;2022-11-15T15:12:46;13.30;99.90
20722;DHT22;10522;52.198;9.890;2022-11-15T15:15:14;13.30;99.90
20722;DHT22;10522;52.198;9.890;2022-11-15T15:17:40;13.20;99.90
20722;DHT22;10522;52.198;9.890;2022-11-15T15:20:07;13.20;99.90
20722;DHT22;10522;52.198;9.890;2022-11-15T15:22:32;13.10;99.90
20722;DHT22;10522;52.198;9.890;2022-11-15T15:24:58;13.10;99.90
20722;DHT22;10522;52.198;9.890;2022-11-15T15:27:24;13.10;99.90
20722;DHT22;10522;52.198;9.890;2022-11-15T15:29:49;13.00;99.90
20722;DHT22;10522;52.198;9.890;2022-11-15T15:32:15;13.00;99.90
20722;DHT22;10522;52.198;9.890;2022-11-15T15:34:40;12.90;99.90
20722;DHT22;10522;52.198;9.890;2022-11-15T15:37:08;13.00;99.90
20722;DHT22;10522;52.198;9.890;2022-11-15T15:39:34;12.90;99.90
20722;DHT22;10522;52.198;9.890;2022-11-15T15:42:00;12.90;99.90
20722;DHT22;10522;52.198;9.890;2022-11-15T15:44:25;12.90;99.90
20722;DHT22;10522;52.198;9.890;2022-11-15T15:46:51;12.70;99.90
20722;DHT22;10522;52.198;9.890;2022-11-15T15:49:16;12.70;99.90
20722;DHT22;10522;52.198;9.890;2022-11-15T15:51:42;12.60;99.90
20722;DHT22;10522;52.198;9.890;2022-11-15T15:54:09;12.50;99.90
20722;DHT22;10522;52.198;9.890;2022-11-15T15:56:34;12.40;99.90
20722;DHT22;10522;52.198;9.890;2022-11-15T15:59:00;12.40;99.90
20722;DHT22;10522;52.198;9.890;2022-11-15T16:01:25;12.30;99.90
20722;DHT22;10522;52.198;9.890;2022-11-15T16:03:51;12.40;99.90
20722;DHT22;10522;52.198;9.890;2022-11-15T16:06:35;12.40;99.90
20722;DHT22;10522;52.198;9.890;2022-11-15T16:09:02;12.50;99.90
20722;DHT22;10522;52.198;9.890;2022-11-15T16:11:27;12.40;99.90
20722;DHT22;10522;52.198;9.890;2022-11-15T16:13:53;12.30;99.90
20722;DHT22;10522;52.198;9.890;2022-11-15T16:16:19;12.20;99.90
20722;DHT22;10522;52.198;9.890;2022-11-15T16:18:46;12.00;99.90
20722;DHT22;10522;52.198;9.890;2022-11-15T16:21:11;12.00;99.90
20722;DHT22;10522;52.198;9.890;2022-11-15T16:23:37;12.00;99.90
20722;DHT22;10522;52.198;9.890;2022-11-15T16:26:25;12.00;99.90
20722;DHT22;10522;52.198;9.890;2022-11-15T16:28:52;12.00;99.90
20722;DHT22;10522;52.198;9.890;2022-11-15T16:31:18;11.90;99.90
20722;DHT22;10522;52.198;9.890;2022-11-15T16:33:46;11.90;99.90
20722;DHT22;10522;52.198;9.890;2022-11-15T16:36:23;11.80;99.90
20722;DHT22;10522;52.198;9.890;2022-11-15T16:38:50;11.80;99.90
20722;DHT22;10522;52.198;9.890;2022-11-15T16:41:16;11.80;99.90
20722;DHT22;10522;52.198;9.890;2022-11-15T16:43:47;11.70;99.90
20722;DHT22;10522;52.198;9.890;2022-11-15T16:46:24;11.60;99.90
20722;DHT22;10522;52.198;9.890;2022-11-15T16:48:50;11.70;99.90
20722;DHT22;10522;52.198;9.890;2022-11-15T16:51:16;11.60;99.90
20722;DHT22;10522;52.198;9.890;2022-11-15T16:53:42;11.60;99.90
20722;DHT22;10522;52.198;9.890;2022-11-15T16:58:49;11.60;99.90
20722;DHT22;10522;52.198;9.890;2022-11-15T17:01:22;11.60;99.90
20722;DHT22;10522;52.198;9.890;2022-11-15T17:03:48;11.60;99.90
20722;DHT22;10522;52.198;9.890;2022-11-15T17:06:14;11.60;99.90
20722;DHT22;10522;52.198;9.890;2022-11-15T17:08:40;11.60;99.90
20722;DHT22;10522;52.198;9.890;2022-11-15T17:11:07;11.50;99.90
20722;DHT22;10522;52.198;9.890;2022-11-15T17:13:32;11.40;99.90
20722;DHT22;10522;52.198;9.890;2022-11-15T17:16:10;11.40;99.90
20722;DHT22;10522;52.198;9.890;2022-11-15T17:18:36;11.40;99.90
20722;DHT22;10522;52.198;9.890;2022-11-15T17:21:20;11.30;99.90
20722;DHT22;10522;52.198;9.890;2022-11-15T17:23:46;11.30;99.90
20722;DHT22;10522;52.198;9.890;2022-11-15T17:26:14;11.30;99.90
20722;DHT22;10522;52.198;9.890;2022-11-15T17:28:40;11.30;99.90
20722;DHT22;10522;52.198;9.890;2022-11-15T17:31:08;11.30;99.90
20722;DHT22;10522;52.198;9.890;2022-11-15T17:33:34;11.30;99.90
20722;DHT22;10522;52.198;9.890;2022-11-15T17:36:02;11.30;99.90